createdAt,value
2023-05-05T00:01:47.733Z,14.33
2023-05-05T00:04:14.309Z,14.31
2023-05-05T00:06:40.914Z,14.25
2023-05-05T00:09:07.439Z,14.11
2023-05-05T00:11:33.967Z,14.02
2023-05-05T00:14:02.759Z,14.02
2023-05-05T00:16:31.631Z,14.00
2023-05-05T00:19:00.545Z,13.87
2023-05-05T00:21:29.440Z,13.88
2023-05-05T00:23:58.391Z,13.85
2023-05-05T00:26:24.952Z,13.80
2023-05-05T00:28:53.990Z,13.67
2023-05-05T00:31:21.009Z,13.65
2023-05-05T00:33:50.081Z,13.57
2023-05-05T00:36:16.646Z,13.42
2023-05-05T00:38:47.945Z,13.46
2023-05-05T00:41:16.870Z,13.56
2023-05-05T00:43:45.742Z,13.38
2023-05-05T00:46:30.630Z,13.41
2023-05-05T00:48:58.205Z,13.45
2023-05-05T00:51:27.978Z,13.19
2023-05-05T00:53:57.177Z,13.28
2023-05-05T00:56:27.426Z,13.32
2023-05-05T00:58:54.287Z,13.27
2023-05-05T01:01:20.908Z,13.32
2023-05-05T01:03:49.884Z,13.28
2023-05-05T01:06:19.179Z,13.30
2023-05-05T01:09:02.115Z,13.20
2023-05-05T01:11:48.768Z,13.24
2023-05-05T01:14:34.198Z,13.27
2023-05-05T01:17:12.648Z,13.17
2023-05-05T01:20:08.090Z,13.19
2023-05-05T01:22:41.533Z,13.22
2023-05-05T01:25:27.175Z,13.27
2023-05-05T01:28:28.417Z,13.33
2023-05-05T01:31:19.743Z,13.33
2023-05-05T01:33:55.112Z,13.34
2023-05-05T01:36:28.642Z,13.29
2023-05-05T01:39:01.985Z,13.29
2023-05-05T01:41:47.311Z,13.26
2023-05-05T01:44:19.976Z,13.22
2023-05-05T01:46:51.883Z,13.09
2023-05-05T01:49:21.064Z,13.04
2023-05-05T01:51:52.397Z,13.15
2023-05-05T01:54:20.315Z,13.18
2023-05-05T01:56:49.263Z,13.16
2023-05-05T01:59:21.071Z,13.00
2023-05-05T02:01:49.476Z,13.00
2023-05-05T02:04:18.599Z,13.03
2023-05-05T02:06:50.456Z,13.13
2023-05-05T02:09:19.724Z,13.12
2023-05-05T02:11:49.354Z,13.17
2023-05-05T02:14:19.264Z,13.15
2023-05-05T02:16:46.850Z,13.20
2023-05-05T02:19:16.833Z,13.22
2023-05-05T02:21:46.321Z,13.17
2023-05-05T02:24:12.967Z,13.22
2023-05-05T02:26:44.188Z,13.20
2023-05-05T02:29:15.365Z,13.17
2023-05-05T02:31:57.833Z,13.15
2023-05-05T02:34:27.489Z,13.12
2023-05-05T02:36:58.432Z,13.11
2023-05-05T02:39:39.368Z,13.03
2023-05-05T02:42:13.218Z,13.04
2023-05-05T02:44:44.510Z,13.00
2023-05-05T02:47:13.716Z,12.98
2023-05-05T02:49:43.760Z,12.87
2023-05-05T02:52:12.958Z,12.74
2023-05-05T02:54:42.214Z,12.74
2023-05-05T02:57:14.808Z,12.75
2023-05-05T02:59:49.499Z,12.68
2023-05-05T03:02:23.220Z,12.54
2023-05-05T03:04:56.724Z,12.58
2023-05-05T03:07:30.963Z,12.59
2023-05-05T03:10:09.691Z,12.47
2023-05-05T03:15:49.417Z,12.55
2023-05-05T03:18:25.167Z,12.44
2023-05-05T03:20:57.454Z,12.37
2023-05-05T03:23:28.896Z,12.28
2023-05-05T03:25:55.504Z,12.18
2023-05-05T03:28:22.134Z,12.18
2023-05-05T03:30:48.750Z,12.24
2023-05-05T03:33:15.985Z,12.24
2023-05-05T03:35:42.533Z,12.24
2023-05-05T03:38:11.665Z,12.11
2023-05-05T03:40:44.486Z,12.03
2023-05-05T03:43:13.787Z,12.10
2023-05-05T03:45:40.363Z,12.12
2023-05-05T03:48:10.139Z,11.94
2023-05-05T03:50:39.010Z,11.96
2023-05-05T03:53:05.570Z,11.96
2023-05-05T03:55:32.185Z,12.02
2023-05-05T03:57:58.742Z,11.99
2023-05-05T04:00:27.636Z,12.06
2023-05-05T04:02:56.595Z,12.07
2023-05-05T04:05:26.056Z,12.04
2023-05-05T04:07:52.613Z,12.09
2023-05-05T04:10:19.181Z,12.17
2023-05-05T04:12:46.314Z,12.11
2023-05-05T04:15:13.008Z,12.05
2023-05-05T04:17:39.800Z,11.77
2023-05-05T04:20:10.612Z,11.87
2023-05-05T04:22:42.068Z,11.77
2023-05-05T04:25:11.381Z,11.94
2023-05-05T04:27:38.072Z,12.02
2023-05-05T04:30:08.424Z,12.06
2023-05-05T04:32:37.553Z,12.17
2023-05-05T04:35:06.996Z,12.13
2023-05-05T04:37:33.557Z,12.20
2023-05-05T04:40:02.167Z,12.33
2023-05-05T04:42:31.329Z,12.40
2023-05-05T04:44:58.030Z,12.47
2023-05-05T04:47:24.844Z,12.61
2023-05-05T04:49:51.425Z,12.74
2023-05-05T04:52:20.240Z,12.93
2023-05-05T04:54:46.920Z,13.11
2023-05-05T04:57:18.211Z,13.31
2023-05-05T04:59:49.597Z,13.55
2023-05-05T05:02:18.624Z,13.69
2023-05-05T05:04:45.211Z,13.63
2023-05-05T05:07:11.781Z,13.93
2023-05-05T05:09:40.914Z,14.09
2023-05-05T05:12:09.861Z,14.18
2023-05-05T05:14:42.472Z,14.27
2023-05-05T05:17:09.094Z,15.05
2023-05-05T05:19:35.833Z,15.48
2023-05-05T05:22:02.387Z,14.37
2023-05-05T05:24:46.480Z,14.01
2023-05-05T05:27:13.018Z,14.64
2023-05-05T05:29:42.144Z,14.42
2023-05-05T05:32:09.063Z,14.62
2023-05-05T05:34:38.256Z,14.73
2023-05-05T05:37:09.564Z,14.61
2023-05-05T05:39:38.379Z,14.57
2023-05-05T05:42:04.990Z,14.55
2023-05-05T05:44:34.585Z,14.58
2023-05-05T05:47:03.387Z,14.71
2023-05-05T05:49:34.962Z,14.74
2023-05-05T05:52:03.767Z,14.91
2023-05-05T05:54:30.383Z,15.40
2023-05-05T05:56:57.077Z,15.54
2023-05-05T05:59:26.017Z,15.30
2023-05-05T06:01:52.588Z,15.07
2023-05-05T06:04:19.192Z,14.77
2023-05-05T06:06:50.842Z,14.93
2023-05-05T06:09:19.500Z,14.95
2023-05-05T06:11:48.272Z,15.22
2023-05-05T06:14:19.496Z,15.53
2023-05-05T06:16:46.606Z,16.49
2023-05-05T06:19:13.157Z,16.71
2023-05-05T06:21:44.189Z,17.01
2023-05-05T06:24:10.782Z,16.94
2023-05-05T06:26:37.412Z,16.86
2023-05-05T06:29:06.865Z,16.63
2023-05-05T06:31:33.565Z,16.55
2023-05-05T06:34:00.230Z,16.49
2023-05-05T06:36:26.819Z,16.37
2023-05-05T06:38:54.212Z,16.42
2023-05-05T06:41:28.040Z,16.55
2023-05-05T06:43:54.635Z,16.79
2023-05-05T06:46:21.325Z,17.11
2023-05-05T06:48:47.976Z,17.02
2023-05-05T06:51:17.066Z,16.90
2023-05-05T06:53:43.631Z,17.07
2023-05-05T06:56:11.419Z,17.21
2023-05-05T06:58:38.001Z,17.30
2023-05-05T07:01:07.256Z,17.58
2023-05-05T07:03:41.212Z,17.96
2023-05-05T07:06:10.448Z,18.24
2023-05-05T07:08:37.013Z,18.55
2023-05-05T07:11:06.502Z,18.41
2023-05-05T07:13:35.311Z,18.24
2023-05-05T07:16:05.171Z,18.32
2023-05-05T07:18:36.293Z,17.82
2023-05-05T07:21:05.877Z,17.79
2023-05-05T07:23:40.647Z,18.31
2023-05-05T07:26:11.803Z,18.77
2023-05-05T07:28:38.387Z,18.64
2023-05-05T07:31:07.265Z,18.31
2023-05-05T07:33:36.162Z,18.31
2023-05-05T07:36:05.562Z,18.39
2023-05-05T07:38:32.110Z,18.67
2023-05-05T07:40:58.858Z,18.81
2023-05-05T07:43:25.706Z,18.62
2023-05-05T07:45:56.911Z,19.04
2023-05-05T07:48:26.053Z,18.89
2023-05-05T07:50:53.017Z,19.52
2023-05-05T07:53:24.304Z,19.88
2023-05-05T07:55:53.444Z,19.84
2023-05-05T07:58:22.679Z,20.07
2023-05-05T08:00:50.323Z,19.73
2023-05-05T08:03:19.924Z,19.49
2023-05-05T08:05:53.166Z,20.13
2023-05-05T08:08:19.840Z,20.06
2023-05-05T08:10:50.668Z,19.97
2023-05-05T08:13:17.292Z,20.26
2023-05-05T08:15:45.545Z,20.49
2023-05-05T08:18:12.221Z,20.48
2023-05-05T08:20:39.196Z,20.89
2023-05-05T08:23:06.391Z,20.67
2023-05-05T08:25:35.629Z,21.19
2023-05-05T08:28:02.531Z,20.30
2023-05-05T08:30:29.454Z,20.69
2023-05-05T08:32:56.522Z,20.56
2023-05-05T08:35:23.289Z,20.62
2023-05-05T08:37:51.676Z,20.68
2023-05-05T08:40:28.836Z,20.76
2023-05-05T08:42:58.416Z,21.16
2023-05-05T08:45:26.176Z,21.04
2023-05-05T08:47:58.049Z,20.65
2023-05-05T08:50:31.278Z,20.82
2023-05-05T08:53:18.103Z,21.17
2023-05-05T08:55:54.609Z,21.16
2023-05-05T08:58:23.410Z,21.14
2023-05-05T09:00:50.807Z,21.57
2023-05-05T09:03:18.286Z,21.70
2023-05-05T09:05:45.147Z,21.85
2023-05-05T09:08:12.038Z,21.59
2023-05-05T09:10:44.694Z,21.66
2023-05-05T09:13:20.187Z,21.74
2023-05-05T09:15:51.256Z,21.60
2023-05-05T09:18:20.200Z,21.27
2023-05-05T09:20:46.789Z,21.49
2023-05-05T09:23:18.433Z,21.87
2023-05-05T09:26:02.437Z,21.97
2023-05-05T09:28:29.400Z,21.80
2023-05-05T09:30:56.159Z,21.91
2023-05-05T09:33:31.920Z,22.19
2023-05-05T09:35:58.922Z,21.78
2023-05-05T09:38:25.917Z,21.74
2023-05-05T09:40:54.073Z,22.08
2023-05-05T09:43:23.988Z,22.52
2023-05-05T09:45:51.439Z,22.49
2023-05-05T09:48:29.160Z,22.02
2023-05-05T09:50:59.046Z,21.64
2023-05-05T09:53:42.472Z,21.85
2023-05-05T09:56:12.231Z,21.78
2023-05-05T09:58:38.855Z,22.19
2023-05-05T10:01:08.632Z,22.15
2023-05-05T10:03:52.658Z,21.83
2023-05-05T10:06:39.447Z,22.04
2023-05-05T10:09:06.186Z,21.88
2023-05-05T10:11:36.147Z,22.14
2023-05-05T10:14:09.071Z,22.42
2023-05-05T10:16:36.997Z,22.49
2023-05-05T10:19:06.765Z,22.49
2023-05-05T10:21:40.202Z,22.44
2023-05-05T10:24:21.916Z,22.20
2023-05-05T10:26:53.108Z,22.50
2023-05-05T10:29:46.061Z,22.28
2023-05-05T10:32:51.520Z,22.84
2023-05-05T10:35:27.974Z,22.93
2023-05-05T10:37:55.184Z,23.27
2023-05-05T10:40:22.568Z,23.57
2023-05-05T10:42:54.058Z,23.27
2023-05-05T10:45:20.900Z,22.78
2023-05-05T10:47:51.132Z,22.82
2023-05-05T10:50:29.534Z,22.96
2023-05-05T10:53:16.786Z,23.20
2023-05-05T10:56:12.795Z,23.26
2023-05-05T10:58:58.448Z,23.08
2023-05-05T11:01:34.137Z,23.78
2023-05-05T11:04:22.504Z,23.49
2023-05-05T11:07:14.731Z,23.54
2023-05-05T11:10:02.033Z,23.32
2023-05-05T11:12:33.192Z,23.18
2023-05-05T11:15:28.047Z,23.66
2023-05-05T11:17:59.300Z,24.04
2023-05-05T11:20:35.162Z,24.08
2023-05-05T11:23:05.214Z,23.41
2023-05-05T11:25:37.595Z,23.29
2023-05-05T11:28:06.234Z,23.69
2023-05-05T11:30:32.893Z,24.02
2023-05-05T11:33:33.043Z,24.46
2023-05-05T11:36:07.185Z,24.39
2023-05-05T11:39:11.585Z,23.56
2023-05-05T11:41:43.883Z,24.84
2023-05-05T11:44:11.417Z,25.06
2023-05-05T11:46:51.749Z,24.73
2023-05-05T11:49:31.318Z,24.87
2023-05-05T11:52:01.973Z,24.95
2023-05-05T11:54:32.388Z,24.96
2023-05-05T11:57:07.735Z,25.08
2023-05-05T11:59:55.309Z,24.84
2023-05-05T12:02:23.032Z,24.81
2023-05-05T12:04:50.928Z,25.16
2023-05-05T12:07:22.748Z,25.16
2023-05-05T12:09:52.564Z,24.42
2023-05-05T12:12:19.563Z,24.99
2023-05-05T12:14:55.497Z,25.63
2023-05-05T12:17:23.476Z,25.62
2023-05-05T12:19:57.124Z,25.31
2023-05-05T12:22:24.929Z,25.44
2023-05-05T12:25:06.481Z,25.84
2023-05-05T12:27:33.138Z,25.69
2023-05-05T12:30:17.343Z,25.83
2023-05-05T12:32:47.033Z,25.91
2023-05-05T12:35:17.111Z,26.18
2023-05-05T12:37:43.784Z,26.34
2023-05-05T12:40:44.872Z,26.21
2023-05-05T12:43:24.339Z,26.43
2023-05-05T12:46:13.664Z,26.37
2023-05-05T12:48:46.382Z,26.41
2023-05-05T12:51:23.343Z,25.43
2023-05-05T12:54:02.112Z,25.81
2023-05-05T12:56:42.116Z,25.70
2023-05-05T12:59:10.878Z,25.88
2023-05-05T13:01:54.614Z,25.95
2023-05-05T13:04:23.209Z,25.56
2023-05-05T13:07:10.006Z,25.48
2023-05-05T13:09:38.975Z,25.21
2023-05-05T13:12:07.123Z,25.50
2023-05-05T13:14:34.830Z,25.42
2023-05-05T13:17:01.497Z,25.03
2023-05-05T13:19:31.385Z,24.46
2023-05-05T13:21:58.819Z,25.57
2023-05-05T13:24:42.204Z,25.96
2023-05-05T13:27:16.654Z,26.09
2023-05-05T13:29:45.436Z,26.08
2023-05-05T13:32:12.010Z,26.05
2023-05-05T13:34:39.370Z,25.92
2023-05-05T13:37:06.444Z,25.32
2023-05-05T13:39:35.546Z,25.01
2023-05-05T13:42:02.059Z,24.59
2023-05-05T13:44:28.623Z,24.76
2023-05-05T13:46:55.219Z,24.41
2023-05-05T13:49:24.363Z,24.17
2023-05-05T13:51:51.021Z,23.89
2023-05-05T13:54:20.046Z,23.76
2023-05-05T13:56:46.639Z,23.58
2023-05-05T13:59:13.294Z,23.35
2023-05-05T14:01:39.911Z,23.19
2023-05-05T14:04:06.704Z,22.93
2023-05-05T14:06:36.193Z,22.70
2023-05-05T14:09:05.859Z,22.70
2023-05-05T14:11:35.045Z,22.65
2023-05-05T14:14:04.140Z,22.53
2023-05-05T14:16:30.950Z,22.54
2023-05-05T14:18:57.632Z,22.46
2023-05-05T14:21:26.740Z,22.40
2023-05-05T14:23:53.345Z,22.21
2023-05-05T14:26:22.235Z,22.11
2023-05-05T14:28:51.205Z,22.00
2023-05-05T14:31:20.886Z,21.82
2023-05-05T14:33:47.489Z,21.73
2023-05-05T14:36:14.392Z,21.56
2023-05-05T14:38:42.877Z,21.40
2023-05-05T14:41:11.938Z,21.34
2023-05-05T14:43:41.001Z,21.14
2023-05-05T14:46:09.708Z,20.86
2023-05-05T14:48:36.430Z,20.75
2023-05-05T14:51:03.646Z,20.54
2023-05-05T14:53:30.624Z,20.34
2023-05-05T14:55:57.684Z,20.22
2023-05-05T14:58:24.850Z,19.79
2023-05-05T15:00:54.744Z,19.35
2023-05-05T15:03:26.139Z,19.08
2023-05-05T15:05:52.800Z,18.82
2023-05-05T15:08:24.031Z,18.51
2023-05-05T15:10:53.309Z,18.24
2023-05-05T15:13:19.904Z,18.07
2023-05-05T15:15:46.613Z,17.64
2023-05-05T15:18:13.704Z,17.59
2023-05-05T15:20:42.514Z,17.40
2023-05-05T15:23:09.443Z,17.09
2023-05-05T15:25:40.825Z,17.13
2023-05-05T15:28:07.439Z,16.88
2023-05-05T15:30:34.022Z,16.90
2023-05-05T15:33:00.697Z,16.84
2023-05-05T15:35:27.376Z,16.81
2023-05-05T15:37:56.228Z,16.87
2023-05-05T15:40:22.991Z,16.97
2023-05-05T15:42:51.690Z,17.16
2023-05-05T15:45:18.356Z,17.72
2023-05-05T15:47:50.503Z,17.81
2023-05-05T15:50:17.303Z,18.25
2023-05-05T15:52:43.938Z,18.52
2023-05-05T15:55:13.021Z,18.39
2023-05-05T15:57:41.879Z,18.34
2023-05-05T16:00:09.419Z,18.14
2023-05-05T16:02:38.218Z,17.94
2023-05-05T16:05:05.590Z,17.84
2023-05-05T16:07:32.279Z,17.94
2023-05-05T16:10:03.651Z,17.89
2023-05-05T16:12:32.763Z,17.68
2023-05-05T16:15:03.940Z,17.44
2023-05-05T16:17:31.218Z,17.55
2023-05-05T16:19:57.799Z,17.59
2023-05-05T16:22:24.390Z,17.16
2023-05-05T16:24:53.137Z,17.32
2023-05-05T16:27:19.746Z,17.44
2023-05-05T16:29:48.480Z,17.38
2023-05-05T16:32:15.320Z,17.21
2023-05-05T16:34:44.492Z,17.25
2023-05-05T16:37:11.127Z,17.36
2023-05-05T16:39:40.425Z,17.34
2023-05-05T16:42:13.407Z,17.38
2023-05-05T16:44:40.535Z,17.46
2023-05-05T16:47:10.108Z,17.48
2023-05-05T16:49:38.886Z,17.54
2023-05-05T16:52:05.586Z,17.74
2023-05-05T16:54:32.401Z,17.91
2023-05-05T16:56:58.953Z,18.09
2023-05-05T16:59:25.487Z,17.90
2023-05-05T17:01:54.406Z,17.98
2023-05-05T17:04:23.994Z,17.88
2023-05-05T17:06:50.903Z,17.93
2023-05-05T17:09:24.749Z,17.93
2023-05-05T17:11:54.194Z,17.84
2023-05-05T17:14:27.435Z,17.76
2023-05-05T17:16:56.292Z,17.87
2023-05-05T17:19:22.863Z,17.79
2023-05-05T17:21:51.827Z,17.66
2023-05-05T17:24:18.436Z,17.53
2023-05-05T17:26:45.025Z,17.63
2023-05-05T17:29:19.806Z,17.59
2023-05-05T17:31:50.265Z,17.68
2023-05-05T17:34:19.242Z,17.70
2023-05-05T17:36:45.919Z,17.61
2023-05-05T17:39:12.846Z,17.57
2023-05-05T17:41:39.469Z,17.63
2023-05-05T17:44:06.055Z,17.63
2023-05-05T17:46:33.086Z,17.59
2023-05-05T17:49:00.618Z,17.51
2023-05-05T17:51:27.473Z,17.45
2023-05-05T17:53:54.041Z,17.40
2023-05-05T17:56:22.718Z,17.41
2023-05-05T17:58:49.375Z,17.38
2023-05-05T18:01:30.070Z,17.43
2023-05-05T18:03:57.362Z,17.46
2023-05-05T18:06:23.937Z,17.26
2023-05-05T18:08:52.910Z,17.38
2023-05-05T18:11:21.306Z,17.41
2023-05-05T18:13:47.958Z,17.38
2023-05-05T18:16:14.603Z,17.33
2023-05-05T18:18:43.792Z,17.35
2023-05-05T18:21:12.631Z,17.01
2023-05-05T18:23:40.159Z,17.02
2023-05-05T18:26:07.121Z,17.10
2023-05-05T18:28:35.942Z,17.06
2023-05-05T18:31:02.522Z,17.04
2023-05-05T18:33:29.108Z,16.93
2023-05-05T18:35:56.486Z,16.90
2023-05-05T18:38:25.592Z,16.84
2023-05-05T18:40:54.791Z,16.84
2023-05-05T18:43:21.319Z,16.78
2023-05-05T18:45:52.811Z,16.71
2023-05-05T18:48:21.865Z,16.69
2023-05-05T18:50:49.929Z,16.60
2023-05-05T18:53:21.371Z,16.56
2023-05-05T18:55:50.999Z,16.40
2023-05-05T18:58:17.642Z,16.40
2023-05-05T19:00:44.341Z,16.36
2023-05-05T19:03:15.501Z,16.26
2023-05-05T19:05:44.704Z,16.16
2023-05-05T19:08:11.246Z,16.01
2023-05-05T19:10:37.862Z,15.93
2023-05-05T19:13:09.304Z,15.64
2023-05-05T19:15:35.933Z,15.71
2023-05-05T19:18:07.464Z,15.71
2023-05-05T19:20:34.245Z,15.65
2023-05-05T19:23:04.025Z,15.61
2023-05-05T19:25:36.432Z,15.53
2023-05-05T19:28:03.059Z,15.45
2023-05-05T19:30:30.371Z,15.35
2023-05-05T19:33:01.767Z,15.38
2023-05-05T19:35:29.581Z,15.50
2023-05-05T19:37:56.245Z,15.55
2023-05-05T19:40:23.099Z,15.54
2023-05-05T19:42:49.957Z,15.50
2023-05-05T19:45:19.149Z,15.38
2023-05-05T19:47:46.240Z,15.37
2023-05-05T19:50:15.361Z,15.39
2023-05-05T19:52:44.476Z,15.36
2023-05-05T19:55:15.798Z,15.34
2023-05-05T19:57:42.396Z,15.24
2023-05-05T20:00:12.084Z,15.21
2023-05-05T20:02:38.943Z,15.21
2023-05-05T20:05:06.124Z,15.26
2023-05-05T20:07:37.577Z,15.13
2023-05-05T20:10:07.116Z,15.14
2023-05-05T20:12:34.255Z,15.01
2023-05-05T20:15:03.239Z,14.99
2023-05-05T20:17:32.068Z,14.93
2023-05-05T20:20:00.930Z,14.95
2023-05-05T20:22:27.552Z,14.88
2023-05-05T20:24:54.155Z,14.90
2023-05-05T20:27:21.531Z,14.89
2023-05-05T20:29:50.540Z,14.93
2023-05-05T20:32:20.465Z,14.87
2023-05-05T20:34:48.178Z,14.82
2023-05-05T20:37:14.885Z,14.90
2023-05-05T20:39:43.833Z,14.83
2023-05-05T20:42:10.943Z,14.85
2023-05-05T20:44:42.171Z,14.81
2023-05-05T20:47:08.828Z,14.77
2023-05-05T20:49:37.979Z,14.77
2023-05-05T20:52:07.328Z,14.78
2023-05-05T20:54:36.369Z,14.82
2023-05-05T20:57:03.141Z,14.91
2023-05-05T20:59:30.130Z,14.88
2023-05-05T21:01:58.064Z,14.81
2023-05-05T21:04:24.941Z,14.81
2023-05-05T21:06:51.607Z,14.78
2023-05-05T21:09:21.571Z,14.76
2023-05-05T21:11:50.568Z,14.70
2023-05-05T21:14:17.687Z,14.49
2023-05-05T21:16:46.855Z,14.40
2023-05-05T21:19:16.450Z,14.52
2023-05-05T21:21:45.600Z,14.55
2023-05-05T21:24:13.231Z,14.56
2023-05-05T21:26:48.354Z,14.56
2023-05-05T21:29:14.987Z,14.52
2023-05-05T21:31:44.485Z,14.54
2023-05-05T21:34:13.940Z,14.53
2023-05-05T21:36:45.343Z,14.54
2023-05-05T21:39:12.235Z,14.50
2023-05-05T21:41:41.495Z,14.50
2023-05-05T21:44:08.037Z,14.42
2023-05-05T21:46:34.661Z,14.47
2023-05-05T21:49:12.780Z,14.46
2023-05-05T21:51:44.721Z,14.47
2023-05-05T21:54:11.351Z,14.38
2023-05-05T21:56:38.600Z,14.04
2023-05-05T21:59:07.672Z,13.96
2023-05-05T22:01:37.196Z,13.72
2023-05-05T22:04:04.043Z,13.85
2023-05-05T22:06:30.877Z,14.01
2023-05-05T22:08:57.413Z,14.08
2023-05-05T22:11:24.156Z,14.09
2023-05-05T22:13:50.819Z,14.10
2023-05-05T22:16:18.373Z,13.99
2023-05-05T22:18:48.717Z,13.99
2023-05-05T22:21:20.012Z,13.92
2023-05-05T22:23:48.992Z,13.55
2023-05-05T22:26:15.675Z,13.72
2023-05-05T22:28:42.314Z,13.82
2023-05-05T22:31:08.925Z,13.90
2023-05-05T22:33:36.228Z,13.94
2023-05-05T22:36:05.092Z,13.84
2023-05-05T22:38:31.665Z,13.71
2023-05-05T22:40:58.238Z,13.63
2023-05-05T22:43:24.905Z,13.75
2023-05-05T22:45:53.700Z,13.81
2023-05-05T22:48:22.917Z,13.79
2023-05-05T22:50:51.708Z,13.73
2023-05-05T22:53:20.733Z,13.80
2023-05-05T22:55:52.161Z,13.78
2023-05-05T22:58:21.170Z,13.56
2023-05-05T23:00:47.835Z,13.74
2023-05-05T23:03:17.517Z,13.81
2023-05-05T23:05:46.559Z,13.91
2023-05-05T23:08:13.139Z,13.93
2023-05-05T23:10:41.728Z,13.96
2023-05-05T23:13:10.757Z,13.98
2023-05-05T23:15:42.326Z,14.03
2023-05-05T23:18:13.664Z,13.88
2023-05-05T23:20:45.134Z,13.51
2023-05-05T23:23:11.687Z,13.49
2023-05-05T23:25:40.853Z,13.58
2023-05-05T23:28:07.452Z,13.70
2023-05-05T23:30:36.451Z,13.73
2023-05-05T23:33:04.034Z,13.78
2023-05-05T23:35:34.216Z,13.86
2023-05-05T23:38:03.121Z,13.94
2023-05-05T23:40:29.632Z,13.81
2023-05-05T23:42:56.213Z,13.85
2023-05-05T23:45:22.806Z,13.88
2023-05-05T23:47:52.452Z,13.90
2023-05-05T23:50:19.043Z,13.92
2023-05-05T23:52:45.767Z,13.90
2023-05-05T23:55:16.787Z,13.90
2023-05-05T23:57:43.462Z,13.79
